Time;durP1;ratioP1;P1;durP2;ratioP2;P2;SDS_P1;SDS_P2;PMS_P1;PMS_P2;Temp;Humidity;BMP_temperature;BMP_pressure;BME280_temperature;BME280_humidity;BME280_pressure;Samples;Min_cycle;Max_cycle;Signal;HPM_P1;HPM_P2
2022/07/31 00:00:44;;;;;;;4.80;1.75;;;;;;;17.02;100.00;98228.25;5174014;27;20139;-48
2022/07/31 00:03:11;;;;;;;1.85;1.48;;;;;;;17.03;100.00;98227.06;5174169;27;20515;-47
2022/07/31 00:05:38;;;;;;;2.95;1.60;;;;;;;17.09;100.00;98228.06;5174156;27;20046;-50
2022/07/31 00:08:04;;;;;;;2.50;1.23;;;;;;;17.04;100.00;98232.16;5174260;27;20046;-49
2022/07/31 00:10:31;;;;;;;1.85;1.45;;;;;;;17.08;100.00;98221.75;5174071;27;20042;-48
2022/07/31 00:12:57;;;;;;;2.17;1.70;;;;;;;17.01;100.00;98224.69;5174139;27;20180;-50
2022/07/31 00:15:23;;;;;;;6.75;1.02;;;;;;;17.05;100.00;98225.41;5173839;27;20474;-47
2022/07/31 00:17:50;;;;;;;4.57;1.40;;;;;;;17.04;100.00;98221.06;5174208;27;20056;-51
2022/07/31 00:20:17;;;;;;;2.08;1.10;;;;;;;16.90;100.00;98222.19;5173820;27;20050;-48
2022/07/31 00:22:46;;;;;;;3.35;1.25;;;;;;;16.97;100.00;98228.78;5174006;27;20056;-50
2022/07/31 00:25:13;;;;;;;1.25;1.10;;;;;;;16.99;100.00;98232.66;5173398;27;20426;-50
2022/07/31 00:27:41;;;;;;;2.58;1.27;;;;;;;16.66;100.00;98238.13;5173792;27;20057;-47
2022/07/31 00:30:08;;;;;;;5.80;1.25;;;;;;;16.67;100.00;98231.34;5173665;27;20050;-49
2022/07/31 00:32:34;;;;;;;4.32;1.20;;;;;;;16.76;100.00;98254.91;5173680;27;20092;-50
2022/07/31 00:35:00;;;;;;;3.42;1.30;;;;;;;16.78;100.00;98225.63;5173983;27;20568;-47
2022/07/31 00:37:27;;;;;;;2.78;1.70;;;;;;;16.68;100.00;98237.66;5173600;27;20355;-52
2022/07/31 00:39:54;;;;;;;3.63;1.40;;;;;;;16.79;100.00;98254.06;5173516;27;20093;-50
2022/07/31 00:42:21;;;;;;;4.95;1.30;;;;;;;16.81;100.00;98235.84;5173398;27;20049;-47
2022/07/31 00:44:48;;;;;;;1.08;0.98;;;;;;;16.67;100.00;98213.97;5173562;27;20050;-51
2022/07/31 00:47:15;;;;;;;2.95;1.58;;;;;;;16.61;100.00;98240.59;5173407;27;20462;-50
2022/07/31 00:49:41;;;;;;;1.92;1.10;;;;;;;16.60;100.00;98214.91;5173433;27;20145;-49
2022/07/31 00:52:07;;;;;;;1.05;0.80;;;;;;;16.80;100.00;98227.97;5173511;27;20568;-48
2022/07/31 00:54:34;;;;;;;5.03;1.30;;;;;;;16.69;100.00;98206.81;5173132;27;20095;-50
2022/07/31 00:57:01;;;;;;;3.22;1.55;;;;;;;16.81;100.00;98205.38;5173294;27;20050;-50
2022/07/31 00:59:28;;;;;;;3.00;1.30;;;;;;;16.67;100.00;98195.38;5173151;27;20137;-51
2022/07/31 01:01:54;;;;;;;2.33;1.40;;;;;;;16.62;100.00;98220.00;5173224;27;20605;-52
2022/07/31 01:04:21;;;;;;;1.85;1.50;;;;;;;16.76;100.00;98197.59;5173034;27;20050;-47
2022/07/31 01:06:47;;;;;;;4.18;1.33;;;;;;;16.67;100.00;98202.91;5172781;27;20050;-48
2022/07/31 01:09:15;;;;;;;2.67;1.65;;;;;;;16.56;100.00;98219.75;5172840;27;20073;-48
2022/07/31 01:11:50;;;;;;;1.88;0.90;;;;;;;16.58;100.00;98227.63;5172850;27;20528;-49
2022/07/31 01:14:19;;;;;;;1.60;1.00;;;;;;;16.64;100.00;98189.94;5172996;27;20523;-47
2022/07/31 01:16:48;;;;;;;3.08;1.00;;;;;;;16.71;100.00;98187.78;5172659;27;20050;-48
2022/07/31 01:19:21;;;;;;;1.83;1.00;;;;;;;16.61;100.00;98199.88;5173091;27;20042;-48
2022/07/31 01:21:58;;;;;;;4.75;1.90;;;;;;;16.57;100.00;98213.00;5172686;27;20443;-49
2022/07/31 01:24:41;;;;;;;5.47;1.48;;;;;;;16.47;100.00;98214.78;5172967;27;20046;-47
2022/07/31 01:27:20;;;;;;;3.28;1.10;;;;;;;16.32;100.00;98199.69;5172364;27;20046;-48
2022/07/31 01:29:52;;;;;;;2.03;1.15;;;;;;;16.15;100.00;98223.72;5172638;27;20065;-47
2022/07/31 01:32:26;;;;;;;1.33;0.80;;;;;;;16.63;100.00;98221.59;5172659;27;20053;-47
2022/07/31 01:34:56;;;;;;;1.55;1.00;;;;;;;16.78;100.00;98199.94;5172318;27;20050;-48
2022/07/31 01:37:29;;;;;;;2.45;1.33;;;;;;;16.40;100.00;98206.66;5171980;27;20069;-47
2022/07/31 01:40:00;;;;;;;1.77;1.15;;;;;;;16.62;100.00;98201.41;5172361;27;20042;-48
2022/07/31 01:42:30;;;;;;;1.98;1.52;;;;;;;16.52;100.00;98196.13;5172431;27;20144;-47
2022/07/31 01:45:01;;;;;;;2.05;1.58;;;;;;;16.31;100.00;98205.66;5172275;27;20050;-48
2022/07/31 01:47:31;;;;;;;4.90;1.23;;;;;;;16.59;100.00;98209.78;5172654;27;20945;-47
2022/07/31 01:50:00;;;;;;;3.47;1.23;;;;;;;16.57;100.00;98195.63;5172512;27;20054;-48
2022/07/31 01:52:28;;;;;;;1.17;0.95;;;;;;;16.68;100.00;98187.84;5172408;27;20050;-49
2022/07/31 01:54:57;;;;;;;1.23;1.00;;;;;;;16.58;100.00;98172.28;5172284;27;20078;-48
2022/07/31 01:57:25;;;;;;;5.95;1.17;;;;;;;16.53;100.00;98178.31;5172300;27;20057;-48
2022/07/31 01:59:55;;;;;;;4.07;1.52;;;;;;;16.52;100.00;98176.75;5172243;27;20140;-48
2022/07/31 02:02:24;;;;;;;2.45;1.35;;;;;;;16.50;100.00;98206.84;5172273;27;20054;-50
2022/07/31 02:04:51;;;;;;;1.20;1.10;;;;;;;16.62;100.00;98184.03;5172104;27;20050;-50
2022/07/31 02:07:19;;;;;;;4.80;1.20;;;;;;;16.56;100.00;98196.81;5172000;27;20051;-49
2022/07/31 02:09:46;;;;;;;2.53;1.33;;;;;;;16.60;100.00;98195.53;5172023;27;20042;-52
2022/07/31 02:12:13;;;;;;;2.47;1.00;;;;;;;16.50;100.00;98206.84;5171968;27;20141;-48
2022/07/31 02:14:42;;;;;;;1.50;1.00;;;;;;;16.32;100.00;98185.09;5171965;27;20140;-48
2022/07/31 02:17:11;;;;;;;5.13;1.20;;;;;;;16.45;100.00;98221.94;5171959;27;20046;-51
2022/07/31 02:19:40;;;;;;;1.35;0.95;;;;;;;16.66;100.00;98195.78;5172095;27;20047;-50
2022/07/31 02:22:07;;;;;;;1.13;1.02;;;;;;;16.40;100.00;98198.34;5172430;27;20169;-49
2022/07/31 02:24:34;;;;;;;3.63;1.55;;;;;;;16.39;100.00;98216.16;5172099;27;20520;-51
2022/07/31 02:27:01;;;;;;;3.08;1.23;;;;;;;16.46;100.00;98204.94;5172341;27;20104;-47
2022/07/31 02:29:31;;;;;;;1.70;1.30;;;;;;;16.46;100.00;98240.09;5172103;27;20050;-47
2022/07/31 02:31:58;;;;;;;3.38;1.70;;;;;;;16.47;100.00;98198.19;5171967;27;20057;-48
2022/07/31 02:34:27;;;;;;;1.30;1.20;;;;;;;16.52;100.00;98216.25;5171648;27;20098;-51
2022/07/31 02:36:55;;;;;;;3.90;1.50;;;;;;;16.74;100.00;98179.84;5171714;27;20054;-51
2022/07/31 02:39:23;;;;;;;4.18;1.23;;;;;;;16.44;100.00;98201.03;5171789;27;20146;-50
2022/07/31 02:41:51;;;;;;;3.60;1.65;;;;;;;16.64;100.00;98206.53;5171646;27;20470;-48
2022/07/31 02:44:18;;;;;;;1.55;1.30;;;;;;;16.44;100.00;98189.97;5171729;27;20050;-47
2022/07/31 02:46:45;;;;;;;2.10;1.25;;;;;;;16.59;100.00;98220.88;5171970;27;20053;-50
2022/07/31 02:49:12;;;;;;;1.70;1.05;;;;;;;16.68;100.00;98191.41;5175437;27;20398;-48
2022/07/31 02:51:39;;;;;;;7.28;2.13;;;;;;;16.80;100.00;98183.69;5175126;27;20050;-47
2022/07/31 02:54:06;;;;;;;1.33;1.10;;;;;;;16.71;100.00;98221.00;5175465;27;20413;-47
2022/07/31 02:56:34;;;;;;;1.67;1.27;;;;;;;16.45;100.00;98206.13;5175011;27;20088;-47
2022/07/31 02:59:00;;;;;;;2.13;1.45;;;;;;;16.66;100.00;98199.38;5175249;27;20046;-47
2022/07/31 03:01:27;;;;;;;1.75;1.33;;;;;;;16.67;100.00;98189.06;5174775;27;20064;-49
2022/07/31 03:03:53;;;;;;;3.97;1.30;;;;;;;16.45;100.00;98217.19;5174958;27;20098;-48
2022/07/31 03:06:20;;;;;;;2.78;1.40;;;;;;;16.58;100.00;98213.78;5174735;27;20046;-47
2022/07/31 03:08:47;;;;;;;1.50;1.10;;;;;;;16.58;100.00;98256.06;5174919;27;20465;-50
2022/07/31 03:11:14;;;;;;;1.35;1.25;;;;;;;16.53;100.00;98228.91;5174924;27;20050;-47
2022/07/31 03:13:42;;;;;;;2.05;1.73;;;;;;;16.48;100.00;98254.28;5174956;27;20046;-47
2022/07/31 03:16:11;;;;;;;3.63;1.58;;;;;;;16.54;100.00;98274.72;5175020;27;20061;-48
2022/07/31 03:18:39;;;;;;;3.08;1.45;;;;;;;16.40;100.00;98280.56;5174777;27;20050;-47
2022/07/31 03:21:06;;;;;;;2.00;1.45;;;;;;;16.41;100.00;98273.81;5174708;27;20050;-48
2022/07/31 03:23:35;;;;;;;1.27;1.13;;;;;;;16.43;100.00;98271.41;5174754;27;20117;-47
2022/07/31 03:26:02;;;;;;;2.22;1.40;;;;;;;16.08;100.00;98297.75;5174743;27;20053;-47
2022/07/31 03:28:29;;;;;;;1.73;1.33;;;;;;;16.34;100.00;98312.69;5174509;27;20095;-49
2022/07/31 03:30:55;;;;;;;4.57;1.67;;;;;;;16.10;100.00;98365.25;5174919;27;20046;-47
2022/07/31 03:33:22;;;;;;;3.47;1.40;;;;;;;16.06;100.00;98408.78;5174381;27;20094;-48
2022/07/31 03:35:48;;;;;;;3.17;1.60;;;;;;;16.49;100.00;98405.25;5174371;27;20054;-47
2022/07/31 03:38:14;;;;;;;1.63;1.52;;;;;;;16.15;100.00;98417.28;5174640;27;20046;-48
2022/07/31 03:40:40;;;;;;;3.97;1.55;;;;;;;16.31;100.00;98447.06;5174560;27;20505;-50
2022/07/31 03:43:07;;;;;;;2.47;1.52;;;;;;;16.15;100.00;98507.75;5174679;27;20046;-47
2022/07/31 03:45:36;;;;;;;5.38;1.70;;;;;;;16.20;100.00;98546.03;5174326;27;20543;-48
2022/07/31 03:48:02;;;;;;;2.30;1.90;;;;;;;15.88;100.00;98643.19;5174550;27;20519;-46
2022/07/31 03:50:29;;;;;;;4.53;1.60;;;;;;;15.86;100.00;98815.00;5174330;27;20050;-49
2022/07/31 03:52:56;;;;;;;1.23;1.13;;;;;;;15.85;100.00;98865.16;5174568;27;20098;-48
2022/07/31 03:55:24;;;;;;;5.60;1.20;;;;;;;15.82;100.00;98857.66;5174247;27;20080;-47
2022/07/31 03:57:51;;;;;;;5.72;1.80;;;;;;;15.40;100.00;99166.16;5174326;27;20512;-48
2022/07/31 04:00:19;;;;;;;3.95;1.90;;;;;;;14.63;100.00;99438.88;5173274;27;20054;-51
2022/07/31 04:02:46;;;;;;;5.35;1.75;;;;;;;14.41;100.00;99471.84;5174240;27;20545;-48
2022/07/31 04:05:12;;;;;;;5.78;2.00;;;;;;;14.38;100.00;99453.28;5174098;27;20054;-47
2022/07/31 04:07:38;;;;;;;4.15;1.80;;;;;;;14.24;100.00;99453.97;5173838;27;20460;-49
2022/07/31 04:10:05;;;;;;;5.22;1.67;;;;;;;14.27;100.00;99433.91;5174229;27;20132;-50
2022/07/31 04:12:31;;;;;;;1.73;1.63;;;;;;;14.36;100.00;99436.31;5173880;27;20050;-47
2022/07/31 04:14:58;;;;;;;4.00;1.88;;;;;;;14.39;100.00;99449.34;5174052;27;20046;-50
2022/07/31 04:17:24;;;;;;;2.17;1.73;;;;;;;14.44;100.00;99459.25;5173594;27;20466;-50
2022/07/31 04:19:51;;;;;;;3.78;1.70;;;;;;;14.52;100.00;99422.28;5174037;27;20046;-47
2022/07/31 04:22:17;;;;;;;2.75;1.70;;;;;;;14.66;100.00;99418.81;5173734;27;20046;-51
2022/07/31 04:24:43;;;;;;;2.92;1.85;;;;;;;14.57;100.00;99442.03;5173693;27;20050;-50
2022/07/31 04:27:10;;;;;;;7.53;2.10;;;;;;;14.70;100.00;99444.47;5173522;27;20054;-49
2022/07/31 04:29:36;;;;;;;3.50;1.92;;;;;;;14.67;100.00;99445.25;5173562;27;20052;-50
2022/07/31 04:32:03;;;;;;;4.20;1.85;;;;;;;14.81;100.00;99435.06;5173801;27;20049;-48
2022/07/31 04:34:29;;;;;;;3.88;2.67;;;;;;;14.89;100.00;99429.56;5173700;27;20050;-48
2022/07/31 04:36:57;;;;;;;2.05;1.60;;;;;;;14.91;100.00;99429.97;5173560;27;20057;-48
2022/07/31 04:39:23;;;;;;;3.15;2.00;;;;;;;14.96;100.00;99435.13;5173488;27;20086;-52
2022/07/31 04:41:50;;;;;;;6.35;1.90;;;;;;;14.95;100.00;99445.38;5173802;27;20050;-48
2022/07/31 04:44:16;;;;;;;7.35;1.80;;;;;;;15.04;100.00;99437.53;5173420;27;20045;-52
2022/07/31 04:46:42;;;;;;;5.10;2.55;;;;;;;14.97;100.00;99447.75;5173556;27;20047;-48
2022/07/31 04:49:11;;;;;;;3.08;1.63;;;;;;;15.18;100.00;99444.28;5173400;27;20092;-52
2022/07/31 04:51:38;;;;;;;2.78;1.70;;;;;;;15.17;100.00;99451.00;5173375;27;20133;-48
2022/07/31 04:54:05;;;;;;;3.08;2.05;;;;;;;15.27;100.00;99467.59;5173206;27;20505;-48
2022/07/31 04:56:41;;;;;;;4.80;2.00;;;;;;;15.53;100.00;99454.66;5173323;27;20149;-51
2022/07/31 04:59:09;;;;;;;8.93;2.35;;;;;;;15.70;100.00;99465.00;5173376;27;20129;-48
2022/07/31 05:01:35;;;;;;;3.05;2.15;;;;;;;15.46;100.00;99488.59;5173471;27;20068;-52
2022/07/31 05:04:02;;;;;;;3.80;2.33;;;;;;;15.55;100.00;99466.09;5173241;27;20050;-51
2022/07/31 05:06:35;;;;;;;3.55;2.70;;;;;;;15.80;100.00;99465.41;5172936;27;20162;-49
2022/07/31 05:09:03;;;;;;;2.47;2.20;;;;;;;15.78;100.00;99446.44;5173262;27;20050;-51
2022/07/31 05:11:31;;;;;;;3.50;2.65;;;;;;;15.56;100.00;99464.13;5173019;27;20487;-50
2022/07/31 05:13:58;;;;;;;3.17;2.53;;;;;;;15.87;100.00;99454.38;5173441;27;20806;-48
2022/07/31 05:16:26;;;;;;;4.03;2.47;;;;;;;15.74;100.00;99448.41;5173072;27;20456;-52
2022/07/31 05:18:53;;;;;;;3.75;2.05;;;;;;;15.49;100.00;99415.16;5172738;27;20069;-50
2022/07/31 05:21:20;;;;;;;3.63;2.30;;;;;;;15.79;100.00;99395.50;5172975;27;20073;-51
2022/07/31 05:23:47;;;;;;;4.80;2.33;;;;;;;15.83;100.00;99410.13;5173167;27;20050;-47
2022/07/31 05:26:14;;;;;;;3.60;2.35;;;;;;;15.95;100.00;99406.94;5172688;27;20102;-50
2022/07/31 05:28:41;;;;;;;3.53;2.58;;;;;;;16.09;100.00;99400.63;5172709;27;20061;-48
2022/07/31 05:31:08;;;;;;;3.33;2.38;;;;;;;16.04;100.00;99425.13;5173068;27;20046;-49
2022/07/31 05:33:35;;;;;;;3.03;2.80;;;;;;;15.98;100.00;99406.16;5172661;27;20553;-49
2022/07/31 05:36:01;;;;;;;6.75;3.33;;;;;;;16.40;100.00;99395.47;5173033;27;20106;-47
2022/07/31 05:38:28;;;;;;;2.75;2.50;;;;;;;16.36;100.00;99392.72;5172795;27;20046;-49
2022/07/31 05:40:54;;;;;;;3.03;2.50;;;;;;;16.41;100.00;99377.66;5172931;27;20043;-49
2022/07/31 05:43:21;;;;;;;5.55;3.40;;;;;;;16.27;100.00;99384.03;5172577;27;20050;-48
2022/07/31 05:45:48;;;;;;;4.22;2.47;;;;;;;16.08;100.00;99373.38;5172473;27;20050;-47
2022/07/31 05:48:14;;;;;;;4.63;2.72;;;;;;;16.17;100.00;99354.41;5172490;27;20137;-47
2022/07/31 05:50:41;;;;;;;7.82;4.15;;;;;;;16.27;100.00;99359.13;5172122;27;20061;-47
2022/07/31 05:53:08;;;;;;;4.70;3.13;;;;;;;16.20;100.00;99351.63;5172663;27;20046;-47
2022/07/31 05:55:34;;;;;;;4.45;3.25;;;;;;;16.27;100.00;99361.09;5172391;27;20046;-49
2022/07/31 05:58:00;;;;;;;4.55;3.08;;;;;;;16.25;100.00;99358.72;5172395;27;20464;-51
2022/07/31 06:00:27;;;;;;;4.78;2.63;;;;;;;16.29;100.00;99356.72;5172075;27;20046;-48
2022/07/31 06:02:55;;;;;;;5.88;2.92;;;;;;;16.27;100.00;99352.81;5172382;27;20493;-48
2022/07/31 06:05:21;;;;;;;4.43;3.78;;;;;;;16.44;100.00;99354.72;5171962;27;20057;-48
2022/07/31 06:07:50;;;;;;;5.15;4.13;;;;;;;16.38;100.00;99334.97;5172238;27;20145;-51
2022/07/31 06:10:16;;;;;;;5.53;4.00;;;;;;;16.45;100.00;99337.72;5172332;27;20111;-51
2022/07/31 06:12:42;;;;;;;6.53;4.13;;;;;;;16.37;100.00;99322.34;5172212;27;20056;-47
2022/07/31 06:15:09;;;;;;;3.38;3.05;;;;;;;16.44;100.00;99319.53;5171927;27;20125;-51
2022/07/31 06:17:38;;;;;;;3.15;2.85;;;;;;;16.65;100.00;99315.91;5172099;27;20090;-50
2022/07/31 06:20:06;;;;;;;5.57;2.88;;;;;;;16.74;100.00;99307.16;5171914;27;20141;-48
2022/07/31 06:22:32;;;;;;;6.35;3.05;;;;;;;17.00;100.00;99335.56;5174082;27;20050;-48
2022/07/31 06:24:59;;;;;;;3.97;2.95;;;;;;;16.82;100.00;99343.94;5176149;27;20046;-51
2022/07/31 06:27:25;;;;;;;4.05;3.20;;;;;;;17.01;100.00;99345.44;5175552;27;20053;-48
2022/07/31 06:29:51;;;;;;;6.65;2.88;;;;;;;16.77;100.00;99330.53;5175857;27;20510;-51
2022/07/31 06:32:19;;;;;;;6.55;3.38;;;;;;;17.11;100.00;99309.38;5175312;27;20137;-52
2022/07/31 06:34:45;;;;;;;12.55;3.40;;;;;;;17.13;100.00;99328.38;5175729;27;20046;-49
2022/07/31 06:37:12;;;;;;;5.03;2.83;;;;;;;17.66;100.00;99357.69;5175329;27;20054;-48
2022/07/31 06:39:38;;;;;;;4.72;3.25;;;;;;;17.86;100.00;99375.38;5175578;27;20050;-49
2022/07/31 06:42:04;;;;;;;6.43;2.65;;;;;;;18.15;100.00;99408.41;5175139;27;20052;-49
2022/07/31 06:44:32;;;;;;;5.47;3.50;;;;;;;18.42;100.00;99452.16;5175359;27;20133;-48
2022/07/31 06:46:58;;;;;;;4.35;2.85;;;;;;;18.38;100.00;99470.84;5175154;27;20102;-48
2022/07/31 06:49:25;;;;;;;4.38;2.10;;;;;;;18.62;100.00;99472.59;5175424;27;20057;-47
2022/07/31 06:51:52;;;;;;;5.53;2.63;;;;;;;18.98;100.00;99466.69;5175178;27;20081;-48
2022/07/31 06:54:18;;;;;;;4.75;2.70;;;;;;;19.01;100.00;99476.97;5175260;27;20042;-48
2022/07/31 06:56:45;;;;;;;4.15;2.47;;;;;;;18.95;100.00;99475.84;5175294;27;20050;-48
2022/07/31 06:59:11;;;;;;;3.33;2.40;;;;;;;19.14;100.00;99474.47;5174921;27;20501;-48
2022/07/31 07:01:37;;;;;;;3.88;2.90;;;;;;;18.97;100.00;99468.69;5175083;27;20516;-49
2022/07/31 07:04:04;;;;;;;3.20;2.30;;;;;;;19.08;100.00;99465.00;5174865;27;20496;-49
2022/07/31 07:06:30;;;;;;;9.75;2.67;;;;;;;19.04;100.00;99463.03;5175116;27;20138;-48
2022/07/31 07:08:56;;;;;;;4.03;3.03;;;;;;;19.32;100.00;99457.56;5174848;27;20050;-49
2022/07/31 07:11:23;;;;;;;4.85;2.58;;;;;;;19.08;100.00;99460.22;5174900;27;20144;-49
2022/07/31 07:13:50;;;;;;;6.15;3.05;;;;;;;18.74;100.00;99463.78;5174693;27;20046;-48
2022/07/31 07:16:16;;;;;;;3.28;2.55;;;;;;;18.51;100.00;99471.91;5174634;27;20049;-52
2022/07/31 07:18:43;;;;;;;2.80;2.40;;;;;;;18.10;100.00;99461.56;5174984;27;20072;-48
2022/07/31 07:21:09;;;;;;;7.70;2.42;;;;;;;18.25;100.00;99445.59;5174519;27;20054;-49
2022/07/31 07:23:35;;;;;;;6.43;3.72;;;;;;;18.06;100.00;99433.88;5174746;27;20046;-51
2022/07/31 07:26:02;;;;;;;7.32;2.53;;;;;;;18.20;100.00;99419.06;5174391;27;20054;-49
2022/07/31 07:28:29;;;;;;;3.92;2.47;;;;;;;18.29;100.00;99416.63;5174598;27;20521;-50
2022/07/31 07:30:55;;;;;;;4.22;2.67;;;;;;;18.47;100.00;99419.22;5174397;27;20132;-51
2022/07/31 07:33:21;;;;;;;3.25;2.80;;;;;;;18.60;100.00;99440.91;5173574;27;20428;-49
2022/07/31 07:35:47;;;;;;;4.43;2.90;;;;;;;18.39;100.00;99456.56;5174229;27;20046;-49
2022/07/31 07:38:14;;;;;;;4.00;2.88;;;;;;;18.39;100.00;99434.34;5174435;27;20050;-49
2022/07/31 07:40:40;;;;;;;4.35;2.85;;;;;;;18.35;100.00;99414.16;5174814;27;20050;-50
2022/07/31 07:43:06;;;;;;;7.20;2.88;;;;;;;18.04;100.00;99414.06;5174343;27;20057;-49
2022/07/31 07:45:33;;;;;;;6.20;2.58;;;;;;;18.10;100.00;99395.00;5174189;27;20075;-51
2022/07/31 07:47:59;;;;;;;3.00;2.50;;;;;;;18.13;100.00;99390.59;5174320;27;20215;-50
2022/07/31 07:50:26;;;;;;;5.28;3.00;;;;;;;18.26;100.00;99391.66;5174630;27;20106;-51
2022/07/31 07:52:52;;;;;;;4.85;3.03;;;;;;;18.24;100.00;99375.44;5174216;27;20056;-51
2022/07/31 07:55:18;;;;;;;5.53;3.13;;;;;;;18.43;100.00;99396.25;5174724;27;20049;-49
2022/07/31 07:57:45;;;;;;;3.53;2.72;;;;;;;18.53;100.00;99400.13;5174192;27;20564;-48
2022/07/31 08:00:12;;;;;;;6.47;3.75;;;;;;;18.31;100.00;99400.31;5174398;27;20500;-49
2022/07/31 08:02:40;;;;;;;3.92;3.25;;;;;;;18.38;100.00;99395.91;5174200;27;20576;-48
2022/07/31 08:05:07;;;;;;;3.40;2.70;;;;;;;18.17;100.00;99374.72;5174482;27;20564;-48
2022/07/31 08:07:35;;;;;;;4.72;3.30;;;;;;;18.25;100.00;99376.22;5174145;27;20046;-48
2022/07/31 08:10:03;;;;;;;3.60;3.00;;;;;;;18.32;100.00;99363.03;5173919;27;20050;-49
2022/07/31 08:12:29;;;;;;;4.38;2.72;;;;;;;18.49;100.00;99377.97;5173866;27;20413;-49
2022/07/31 08:14:55;;;;;;;3.38;3.00;;;;;;;18.48;100.00;99378.34;5174103;27;20450;-48
2022/07/31 08:17:22;;;;;;;3.92;3.13;;;;;;;18.66;100.00;99376.19;5174399;27;20141;-48
2022/07/31 08:19:49;;;;;;;4.53;3.22;;;;;;;18.48;100.00;99387.47;5174070;27;20543;-49
2022/07/31 08:22:15;;;;;;;5.32;3.10;;;;;;;18.37;100.00;99375.69;5174286;27;20045;-49
2022/07/31 08:24:42;;;;;;;4.38;2.95;;;;;;;18.39;100.00;99364.16;5173735;27;20374;-50
2022/07/31 08:27:23;;;;;;;8.20;3.13;;;;;;;18.61;100.00;99356.41;5174019;27;20053;-52
2022/07/31 08:29:50;;;;;;;3.40;3.10;;;;;;;18.78;100.00;99397.09;5173573;27;20421;-54
2022/07/31 08:32:16;;;;;;;5.05;3.05;;;;;;;19.04;100.00;99388.03;5173631;27;20049;-53
2022/07/31 08:34:43;;;;;;;3.45;2.78;;;;;;;19.02;100.00;99409.88;5173479;27;20053;-49
2022/07/31 08:37:10;;;;;;;4.28;2.53;;;;;;;18.87;100.00;99419.59;5173454;27;20073;-52
2022/07/31 08:39:36;;;;;;;5.40;3.30;;;;;;;19.33;100.00;99418.22;5173434;27;20042;-49
2022/07/31 08:42:04;;;;;;;4.20;3.10;;;;;;;19.69;100.00;99445.53;5173362;27;20057;-48
2022/07/31 08:44:30;;;;;;;5.35;3.10;;;;;;;19.44;100.00;99452.22;5172880;27;20071;-52
2022/07/31 08:46:57;;;;;;;5.10;3.10;;;;;;;19.64;100.00;99451.59;5173175;27;20054;-49
2022/07/31 08:49:25;;;;;;;3.92;2.70;;;;;;;19.67;100.00;99454.31;5173661;27;20101;-51
2022/07/31 08:51:53;;;;;;;3.63;3.30;;;;;;;19.88;100.00;99450.41;5173445;27;20042;-49
2022/07/31 08:54:22;;;;;;;5.15;3.03;;;;;;;19.90;100.00;99455.59;5173183;27;20054;-50
2022/07/31 08:56:51;;;;;;;3.08;2.67;;;;;;;19.96;100.00;99449.13;5173084;27;20106;-52
2022/07/31 08:59:18;;;;;;;3.42;2.70;;;;;;;19.58;100.00;99448.44;5173259;27;20454;-52
2022/07/31 09:01:45;;;;;;;7.15;3.20;;;;;;;19.72;100.00;99441.91;5173004;27;20054;-51
2022/07/31 09:04:11;;;;;;;3.75;2.85;;;;;;;19.75;100.00;99443.88;5173070;27;20580;-50
2022/07/31 09:06:38;;;;;;;5.82;3.00;;;;;;;19.90;100.00;99438.88;5172848;27;20523;-51
2022/07/31 09:09:05;;;;;;;4.40;2.90;;;;;;;19.80;100.00;99437.06;5173051;27;20046;-51
2022/07/31 09:11:32;;;;;;;6.60;3.20;;;;;;;20.26;100.00;99439.09;5173192;27;20047;-48
2022/07/31 09:14:01;;;;;;;5.90;3.50;;;;;;;20.94;100.00;99410.00;5172796;27;20046;-51
2022/07/31 09:16:28;;;;;;;3.35;2.90;;;;;;;21.27;100.00;99345.97;5173084;27;20098;-53
2022/07/31 09:18:55;;;;;;;6.93;3.30;;;;;;;21.47;100.00;99274.22;5172708;27;20141;-50
2022/07/31 09:21:22;;;;;;;6.90;3.08;;;;;;;21.97;100.00;99205.94;5173205;27;20046;-53
2022/07/31 09:23:48;;;;;;;3.65;2.75;;;;;;;21.96;100.00;99161.69;5172725;27;20136;-52
2022/07/31 09:26:15;;;;;;;5.35;3.00;;;;;;;21.93;100.00;99146.63;5172839;27;20528;-53
2022/07/31 09:28:43;;;;;;;4.13;3.20;;;;;;;21.84;100.00;99111.00;5172598;27;20052;-52
2022/07/31 09:31:12;;;;;;;4.55;3.40;;;;;;;22.02;100.00;99137.59;5172527;27;20050;-52
2022/07/31 09:33:42;;;;;;;7.15;2.85;;;;;;;22.12;100.00;99119.75;5172881;27;20128;-51
2022/07/31 09:36:09;;;;;;;5.18;3.30;;;;;;;22.02;100.00;99118.84;5172495;27;20075;-49
2022/07/31 09:38:40;;;;;;;7.07;2.65;;;;;;;21.85;100.00;99137.66;5172516;27;20046;-48
2022/07/31 09:41:10;;;;;;;5.00;3.20;;;;;;;22.06;100.00;99136.28;5172570;27;20467;-49
2022/07/31 09:43:37;;;;;;;4.55;3.25;;;;;;;22.13;100.00;99107.38;5172890;27;20054;-51
2022/07/31 09:46:05;;;;;;;6.60;3.13;;;;;;;21.74;100.00;99178.28;5172377;27;20094;-50
2022/07/31 09:48:32;;;;;;;4.47;2.85;;;;;;;22.00;100.00;99216.22;5172670;27;20050;-49
2022/07/31 09:51:00;;;;;;;7.28;2.85;;;;;;;22.20;100.00;99190.19;5172369;27;20061;-52
2022/07/31 09:53:26;;;;;;;4.57;3.20;;;;;;;21.94;100.00;99166.97;5172175;27;20049;-53
2022/07/31 09:55:54;;;;;;;5.32;2.75;;;;;;;21.70;100.00;99230.59;5172114;27;20109;-52
2022/07/31 09:58:21;;;;;;;3.70;3.08;;;;;;;21.71;100.00;99260.84;5171460;27;20054;-52
2022/07/31 10:00:51;;;;;;;3.17;2.72;;;;;;;22.29;100.00;99173.53;5172249;27;20137;-50
2022/07/31 10:03:19;;;;;;;4.65;3.20;;;;;;;22.29;100.00;99128.84;5172349;27;20508;-52
2022/07/31 10:05:46;;;;;;;3.92;2.97;;;;;;;22.11;100.00;99160.06;5172269;27;20504;-50
2022/07/31 10:08:13;;;;;;;4.45;2.90;;;;;;;22.33;100.00;99137.16;5172009;27;20061;-51
2022/07/31 10:10:43;;;;;;;8.18;3.38;;;;;;;22.99;100.00;99096.31;5172632;27;20054;-51
2022/07/31 10:13:14;;;;;;;5.43;3.03;;;;;;;22.79;100.00;98967.97;5172090;27;20083;-49
2022/07/31 10:15:41;;;;;;;5.97;3.45;;;;;;;23.06;100.00;98983.44;5172528;27;20103;-52
2022/07/31 10:18:09;;;;;;;4.90;3.25;;;;;;;22.97;100.00;98959.00;5172347;27;20459;-50
2022/07/31 10:20:38;;;;;;;7.32;3.35;;;;;;;23.16;100.00;98993.50;5172031;27;20042;-50
2022/07/31 10:23:08;;;;;;;5.03;3.20;;;;;;;23.28;100.00;98886.34;5172172;27;20046;-48
2022/07/31 10:25:38;;;;;;;4.47;3.40;;;;;;;22.92;100.00;98939.97;5171796;27;20094;-50
2022/07/31 10:28:06;;;;;;;4.80;3.40;;;;;;;23.33;100.00;98966.88;5172128;27;20069;-51
2022/07/31 10:30:32;;;;;;;4.60;3.50;;;;;;;22.49;100.00;99005.72;5171830;27;20050;-51
2022/07/31 10:32:58;;;;;;;3.78;3.20;;;;;;;22.84;100.00;99101.56;5171917;27;20099;-51
2022/07/31 10:35:26;;;;;;;5.57;3.10;;;;;;;22.49;100.00;99121.06;5171985;27;20046;-50
2022/07/31 10:38:00;;;;;;;4.50;3.78;;;;;;;22.26;100.00;99135.34;5172325;27;20089;-49
2022/07/31 10:40:35;;;;;;;3.50;3.10;;;;;;;22.52;100.00;99178.03;5171940;27;20046;-52
2022/07/31 10:43:19;;;;;;;7.10;2.97;;;;;;;22.35;100.00;99207.28;5171665;27;20050;-49
2022/07/31 10:45:48;;;;;;;4.05;3.42;;;;;;;22.41;100.00;99150.44;5172385;27;20352;-52
2022/07/31 10:48:14;;;;;;;6.53;3.55;;;;;;;22.45;100.00;99212.53;5171416;27;20485;-50
2022/07/31 10:50:41;;;;;;;9.20;4.05;;;;;;;22.73;100.00;99187.78;5171955;27;20137;-52
2022/07/31 10:53:09;;;;;;;5.85;3.80;;;;;;;22.67;100.00;99156.03;5171740;27;20429;-49
2022/07/31 10:55:35;;;;;;;5.57;3.50;;;;;;;22.83;100.00;99185.88;5171742;27;20417;-50
2022/07/31 10:58:09;;;;;;;5.10;3.22;;;;;;;22.64;100.00;99196.03;5171766;27;20107;-50
2022/07/31 11:00:36;;;;;;;4.63;3.00;;;;;;;22.56;100.00;99164.75;5171633;27;20042;-53
2022/07/31 11:03:14;;;;;;;7.40;3.78;;;;;;;22.39;100.00;99225.53;5171418;27;20046;-51
2022/07/31 11:05:53;;;;;;;4.82;3.03;;;;;;;22.60;100.00;99217.72;5171565;27;20053;-52
2022/07/31 11:08:20;;;;;;;4.70;3.38;;;;;;;23.15;100.00;99179.25;5172855;27;20413;-51
2022/07/31 11:10:50;;;;;;;3.80;3.47;;;;;;;22.41;100.00;99225.06;5174935;27;20144;-50
2022/07/31 11:13:16;;;;;;;4.97;3.72;;;;;;;23.04;100.00;99173.25;5175369;27;20053;-53
2022/07/31 11:15:42;;;;;;;6.03;3.13;;;;;;;23.02;100.00;99157.72;5174709;27;20179;-50
2022/07/31 11:18:13;;;;;;;6.22;3.72;;;;;;;23.08;100.00;99173.91;5175092;27;20075;-49
2022/07/31 11:20:41;;;;;;;4.22;3.53;;;;;;;22.65;100.00;99195.59;5174769;27;20501;-50
2022/07/31 11:23:08;;;;;;;5.72;3.13;;;;;;;22.75;100.00;99250.38;5174915;27;20155;-49
2022/07/31 11:25:37;;;;;;;4.15;3.70;;;;;;;22.56;100.00;99268.13;5174699;27;20098;-49